createdAt,value
2022-12-08T00:00:28.748Z,1003.61
2022-12-08T00:01:28.766Z,1003.62
2022-12-08T00:02:28.939Z,1003.57
2022-12-08T00:03:28.931Z,1003.56
2022-12-08T00:04:28.819Z,1003.57
2022-12-08T00:05:28.835Z,1003.53
2022-12-08T00:06:28.853Z,1003.55
2022-12-08T00:07:28.871Z,1003.54
2022-12-08T00:08:28.904Z,1003.54
2022-12-08T00:09:32.090Z,1003.51
2022-12-08T00:10:50.079Z,1003.52
2022-12-08T00:11:28.943Z,1003.51
2022-12-08T00:12:28.962Z,1003.53
2022-12-08T00:13:28.981Z,1003.46
2022-12-08T00:14:28.993Z,1003.44
2022-12-08T00:15:29.010Z,1003.49
2022-12-08T00:16:29.052Z,1003.45
2022-12-08T00:17:29.044Z,1003.43
2022-12-08T00:18:29.065Z,1003.42
2022-12-08T00:19:29.079Z,1003.40
2022-12-08T00:20:29.099Z,1003.42
2022-12-08T00:21:29.119Z,1003.41
2022-12-08T00:22:29.133Z,1003.38
2022-12-08T00:23:29.149Z,1003.39
2022-12-08T00:24:29.171Z,1003.36
2022-12-08T00:25:29.181Z,1003.34
2022-12-08T00:26:29.202Z,1003.36
2022-12-08T00:27:29.222Z,1003.35
2022-12-08T00:28:29.237Z,1003.35
2022-12-08T00:29:29.255Z,1003.33
2022-12-08T00:30:29.272Z,1003.29
2022-12-08T00:31:29.339Z,1003.32
2022-12-08T00:32:29.306Z,1003.30
2022-12-08T00:33:29.324Z,1003.27
2022-12-08T00:34:29.341Z,1003.28
2022-12-08T00:35:29.360Z,1003.27
2022-12-08T00:36:29.373Z,1003.26
2022-12-08T00:37:29.394Z,1003.29
2022-12-08T00:38:29.408Z,1003.25
2022-12-08T00:39:29.426Z,1003.20
2022-12-08T00:40:29.442Z,1003.19
2022-12-08T00:41:29.461Z,1003.20
2022-12-08T00:42:29.479Z,1003.23
2022-12-08T00:43:29.489Z,1003.22
2022-12-08T00:44:29.512Z,1003.21
2022-12-08T00:45:29.634Z,1003.23
2022-12-08T00:46:29.630Z,1003.23
2022-12-08T00:47:29.564Z,1003.21
2022-12-08T00:48:29.583Z,1003.20
2022-12-08T00:49:29.595Z,1003.21
2022-12-08T00:50:29.635Z,1003.17
2022-12-08T00:51:29.632Z,1003.15
2022-12-08T00:52:29.653Z,1003.16
2022-12-08T00:53:29.666Z,1003.14
2022-12-08T00:54:29.686Z,1003.10
2022-12-08T00:55:29.705Z,1003.15
2022-12-08T00:56:29.720Z,1003.12
2022-12-08T00:57:29.731Z,1003.14
2022-12-08T00:58:29.756Z,1003.12
2022-12-08T00:59:29.775Z,1003.10
2022-12-08T01:00:29.787Z,1003.08
2022-12-08T01:01:29.877Z,1003.08
2022-12-08T01:02:29.823Z,1003.05
2022-12-08T01:03:29.885Z,1003.10
2022-12-08T01:04:29.862Z,1003.05
2022-12-08T01:05:29.877Z,1003.10
2022-12-08T01:06:29.896Z,1003.06
2022-12-08T01:07:29.913Z,1003.03
2022-12-08T01:08:29.932Z,1003.06
2022-12-08T01:09:29.947Z,1003.06
2022-12-08T01:10:29.965Z,1003.03
2022-12-08T01:11:29.982Z,1003.03
2022-12-08T01:12:30.002Z,1003.07
2022-12-08T01:13:30.021Z,1003.04
2022-12-08T01:14:30.035Z,1003.06
2022-12-08T01:15:30.050Z,1003.10
2022-12-08T01:16:30.123Z,1003.08
2022-12-08T01:17:30.085Z,1003.08
2022-12-08T01:18:30.105Z,1003.11
2022-12-08T01:19:30.122Z,1003.16
2022-12-08T01:20:30.139Z,1003.14
2022-12-08T01:21:30.163Z,1003.09
2022-12-08T01:22:30.174Z,1003.11
2022-12-08T01:23:30.192Z,1003.10
2022-12-08T01:24:30.212Z,1003.11
2022-12-08T01:25:30.227Z,1003.12
2022-12-08T01:26:30.243Z,1003.16
2022-12-08T01:27:30.262Z,1003.16
2022-12-08T01:28:30.281Z,1003.16
2022-12-08T01:29:30.298Z,1003.16
2022-12-08T01:30:30.351Z,1003.17
2022-12-08T01:31:30.333Z,1003.16
2022-12-08T01:32:30.351Z,1003.20
2022-12-08T01:33:30.370Z,1003.17
2022-12-08T01:34:30.390Z,1003.18
2022-12-08T01:35:30.432Z,1003.13
2022-12-08T01:36:30.422Z,1003.15
2022-12-08T01:37:30.438Z,1003.15
2022-12-08T01:38:30.455Z,1003.15
2022-12-08T01:39:30.474Z,1003.14
2022-12-08T01:40:30.492Z,1003.15
2022-12-08T01:41:30.511Z,1003.14
2022-12-08T01:42:30.526Z,1003.18
2022-12-08T01:43:30.546Z,1003.15
2022-12-08T01:44:30.561Z,1003.15
2022-12-08T01:45:30.579Z,1003.16
2022-12-08T01:46:30.678Z,1003.11
2022-12-08T01:47:30.694Z,1003.15
2022-12-08T01:48:30.631Z,1003.14
2022-12-08T01:49:30.659Z,1003.11
2022-12-08T01:50:30.667Z,1003.10
2022-12-08T01:51:30.685Z,1003.09
2022-12-08T01:52:30.701Z,1003.04
2022-12-08T01:53:30.732Z,1003.02
2022-12-08T01:54:30.739Z,1003.04
2022-12-08T01:55:30.754Z,1003.03
2022-12-08T01:56:30.771Z,1003.05
2022-12-08T01:57:30.787Z,1003.06
2022-12-08T01:58:30.806Z,1003.06
2022-12-08T01:59:30.823Z,1003.03
2022-12-08T02:00:30.845Z,1003.06
2022-12-08T02:01:30.907Z,1003.04
2022-12-08T02:02:30.908Z,1003.02
2022-12-08T02:03:30.894Z,1002.98
2022-12-08T02:04:30.911Z,1002.97
2022-12-08T02:05:30.928Z,1002.97
2022-12-08T02:06:30.944Z,1002.98
2022-12-08T02:07:30.966Z,1002.95
2022-12-08T02:08:30.983Z,1002.96
2022-12-08T02:09:30.999Z,1002.93
2022-12-08T02:10:31.021Z,1002.94
2022-12-08T02:11:31.034Z,1002.93
2022-12-08T02:12:31.051Z,1002.88
2022-12-08T02:13:31.071Z,1002.82
2022-12-08T02:14:31.085Z,1002.85
2022-12-08T02:15:31.188Z,1002.86
2022-12-08T02:16:31.155Z,1002.83
2022-12-08T02:17:31.138Z,1002.81
2022-12-08T02:18:31.161Z,1002.85
2022-12-08T02:19:31.896Z,1002.84
2022-12-08T02:20:31.189Z,1002.84
2022-12-08T02:21:31.206Z,1002.80
2022-12-08T02:22:31.225Z,1002.82
2022-12-08T02:23:31.250Z,1002.79
2022-12-08T02:24:31.262Z,1002.77
2022-12-08T02:25:31.282Z,1002.76
2022-12-08T02:26:31.301Z,1002.75
2022-12-08T02:27:31.320Z,1002.80
2022-12-08T02:28:31.337Z,1002.78
2022-12-08T02:29:31.346Z,1002.77
2022-12-08T02:30:31.400Z,1002.76
2022-12-08T02:31:31.436Z,1002.71
2022-12-08T02:32:31.403Z,1002.75
2022-12-08T02:33:31.422Z,1002.70
2022-12-08T02:34:31.436Z,1002.69
2022-12-08T02:35:31.453Z,1002.70
2022-12-08T02:36:31.469Z,1002.70
2022-12-08T02:37:31.489Z,1002.70
2022-12-08T02:38:31.509Z,1002.69
2022-12-08T02:39:31.531Z,1002.71
2022-12-08T02:40:31.547Z,1002.68
2022-12-08T02:41:31.562Z,1002.68
2022-12-08T02:42:31.580Z,1002.65
2022-12-08T02:43:31.600Z,1002.69
2022-12-08T02:44:31.612Z,1002.63
2022-12-08T02:45:31.636Z,1002.61
2022-12-08T02:46:31.719Z,1002.59
2022-12-08T02:47:31.668Z,1002.57
2022-12-08T02:48:31.687Z,1002.48
2022-12-08T02:49:31.703Z,1002.52
2022-12-08T02:50:31.716Z,1002.56
2022-12-08T02:51:31.739Z,1002.52
2022-12-08T02:52:31.753Z,1002.47
2022-12-08T02:53:31.777Z,1002.48
2022-12-08T02:54:31.820Z,1002.46
2022-12-08T02:55:31.811Z,1002.46
2022-12-08T02:56:31.828Z,1002.47
2022-12-08T02:57:31.852Z,1002.47
2022-12-08T02:58:31.861Z,1002.45
2022-12-08T02:59:31.905Z,1002.46
2022-12-08T03:00:31.890Z,1002.47
2022-12-08T03:01:31.977Z,1002.50
2022-12-08T03:02:32.021Z,1002.50
2022-12-08T03:03:31.954Z,1002.45
2022-12-08T03:04:31.976Z,1002.46
2022-12-08T03:05:31.986Z,1002.44
2022-12-08T03:06:32.003Z,1002.43
2022-12-08T03:07:32.022Z,1002.41
2022-12-08T03:08:32.118Z,1002.39
2022-12-08T03:09:32.052Z,1002.35
2022-12-08T03:10:32.069Z,1002.34
2022-12-08T03:11:32.087Z,1002.32
2022-12-08T03:12:32.108Z,1002.31
2022-12-08T03:13:32.123Z,1002.30
2022-12-08T03:14:32.143Z,1002.28
2022-12-08T03:15:32.215Z,1002.31
2022-12-08T03:16:32.222Z,1002.27
2022-12-08T03:17:32.199Z,1002.28
2022-12-08T03:18:32.216Z,1002.22
2022-12-08T03:19:32.257Z,1002.20
2022-12-08T03:20:32.245Z,1002.18
2022-12-08T03:21:32.269Z,1002.14
2022-12-08T03:22:32.281Z,1002.12
2022-12-08T03:23:32.304Z,1002.11
2022-12-08T03:24:32.321Z,1002.10
2022-12-08T03:25:32.336Z,1002.07
2022-12-08T03:26:32.355Z,1002.03
2022-12-08T03:27:32.377Z,1002.05
2022-12-08T03:28:32.397Z,1002.04
2022-12-08T03:29:32.409Z,1002.04
2022-12-08T03:30:32.447Z,1002.00
2022-12-08T03:31:32.525Z,1002.01
2022-12-08T03:32:32.462Z,1001.96
2022-12-08T03:33:32.482Z,1001.99
2022-12-08T03:34:32.502Z,1001.95
2022-12-08T03:35:32.518Z,1001.96
2022-12-08T03:36:32.539Z,1001.93
2022-12-08T03:37:32.556Z,1001.87
2022-12-08T03:38:32.574Z,1001.93
2022-12-08T03:39:32.591Z,1001.92
2022-12-08T03:40:32.610Z,1001.84
2022-12-08T03:41:32.624Z,1001.87
2022-12-08T03:42:32.648Z,1001.84
2022-12-08T03:43:32.663Z,1001.82
2022-12-08T03:44:32.693Z,1001.85
2022-12-08T03:45:32.700Z,1001.83
2022-12-08T03:46:32.723Z,1001.78
2022-12-08T03:47:32.735Z,1001.78
2022-12-08T03:48:32.755Z,1001.75
2022-12-08T03:49:32.776Z,1001.73
2022-12-08T03:50:32.792Z,1001.69
2022-12-08T03:51:32.806Z,1001.71
2022-12-08T03:52:32.827Z,1001.69
2022-12-08T03:53:32.841Z,1001.67
2022-12-08T03:54:32.869Z,1001.65
2022-12-08T03:55:32.882Z,1001.60
2022-12-08T03:56:32.894Z,1001.58
2022-12-08T03:57:32.919Z,1001.56
2022-12-08T03:58:37.179Z,1001.58
2022-12-08T03:59:32.954Z,1001.54
2022-12-08T04:00:32.970Z,1001.52
2022-12-08T04:01:33.037Z,1001.54
2022-12-08T04:02:33.075Z,1001.55
2022-12-08T04:03:33.025Z,1001.54
2022-12-08T04:04:33.047Z,1001.53
2022-12-08T04:05:33.067Z,1001.50
2022-12-08T04:06:33.079Z,1001.52
2022-12-08T04:07:33.100Z,1001.50
2022-12-08T04:08:33.116Z,1001.46
2022-12-08T04:09:33.132Z,1001.50
2022-12-08T04:10:33.155Z,1001.49
2022-12-08T04:11:33.171Z,1001.49
2022-12-08T04:12:33.188Z,1001.52
2022-12-08T04:13:33.207Z,1001.53
2022-12-08T04:14:33.224Z,1001.55
2022-12-08T04:15:33.246Z,1001.51
2022-12-08T04:16:33.412Z,1001.52
2022-12-08T04:17:33.285Z,1001.49
2022-12-08T04:18:33.298Z,1001.45
2022-12-08T04:19:33.322Z,1001.47
2022-12-08T04:20:33.335Z,1001.44
2022-12-08T04:21:33.360Z,1001.41
2022-12-08T04:22:33.369Z,1001.42
2022-12-08T04:23:33.397Z,1001.41
2022-12-08T04:24:33.402Z,1001.41
2022-12-08T04:25:33.430Z,1001.43
2022-12-08T04:26:33.440Z,1001.38
2022-12-08T04:27:33.464Z,1001.39
2022-12-08T04:28:33.506Z,1001.36
2022-12-08T04:29:33.497Z,1001.37
2022-12-08T04:30:33.517Z,1001.32
2022-12-08T04:31:33.624Z,1001.33
2022-12-08T04:32:33.551Z,1001.35
2022-12-08T04:33:33.570Z,1001.35
2022-12-08T04:34:33.593Z,1001.35
2022-12-08T04:35:33.608Z,1001.28
2022-12-08T04:36:33.624Z,1001.34
2022-12-08T04:37:33.639Z,1001.30
2022-12-08T04:38:33.664Z,1001.32
2022-12-08T04:39:33.679Z,1001.30
2022-12-08T04:40:33.699Z,1001.26
2022-12-08T04:41:33.712Z,1001.26
2022-12-08T04:42:33.732Z,1001.31
2022-12-08T04:43:33.750Z,1001.28
2022-12-08T04:44:33.772Z,1001.27
2022-12-08T04:45:33.788Z,1001.25
2022-12-08T04:46:43.644Z,1001.29
2022-12-08T04:48:38.324Z,1001.25
2022-12-08T04:49:37.817Z,1001.23
2022-12-08T04:51:41.814Z,1001.20
2022-12-08T04:52:41.823Z,1001.20
2022-12-08T04:54:46.302Z,1001.20
2022-12-08T04:55:45.835Z,1001.22
2022-12-08T04:57:49.830Z,1001.21
2022-12-08T04:58:49.833Z,1001.19
2022-12-08T05:00:54.374Z,1001.25
2022-12-08T05:01:54.058Z,1001.23
2022-12-08T05:03:57.860Z,1001.22
2022-12-08T05:04:57.869Z,1001.25
2022-12-08T05:07:02.352Z,1001.22
2022-12-08T05:08:01.937Z,1001.22
2022-12-08T05:09:54.802Z,1001.25
2022-12-08T05:10:54.806Z,1001.24
2022-12-08T05:12:59.290Z,1001.25
2022-12-08T05:13:58.816Z,1001.20
2022-12-08T05:16:02.866Z,1001.20
2022-12-08T05:17:09.160Z,1001.15
2022-12-08T05:19:07.324Z,1001.11
2022-12-08T05:20:07.087Z,1001.13
2022-12-08T05:22:10.839Z,1001.10
2022-12-08T05:23:10.847Z,1001.10
2022-12-08T05:25:15.332Z,1001.10
2022-12-08T05:26:14.876Z,1001.07
2022-12-08T05:28:40.674Z,1001.06
2022-12-08T05:29:18.875Z,1001.05
2022-12-08T05:31:23.384Z,1001.08
2022-12-08T05:32:22.884Z,1001.03
2022-12-08T05:34:26.884Z,1000.98
2022-12-08T05:35:26.900Z,1001.00
2022-12-08T05:37:31.384Z,1000.95
2022-12-08T05:38:30.915Z,1000.95
2022-12-08T05:40:34.906Z,1000.94
2022-12-08T05:41:34.916Z,1000.93
2022-12-08T05:43:39.399Z,1000.94
2022-12-08T05:44:38.941Z,1000.92
2022-12-08T05:46:42.949Z,1000.85
2022-12-08T05:47:42.957Z,1000.91
2022-12-08T05:49:36.425Z,1000.88
2022-12-08T05:50:35.900Z,1000.89
2022-12-08T05:52:39.889Z,1000.92
2022-12-08T05:53:39.902Z,1000.93
2022-12-08T05:55:44.386Z,1000.91
2022-12-08T05:56:43.945Z,1000.87
2022-12-08T05:58:47.946Z,1000.92
2022-12-08T05:59:47.956Z,1000.87
2022-12-08T06:01:52.493Z,1000.85
2022-12-08T06:02:52.155Z,1000.86
2022-12-08T06:04:55.961Z,1000.80
2022-12-08T06:05:55.973Z,1000.80
2022-12-08T06:08:00.892Z,1000.78
2022-12-08T06:08:59.981Z,1000.80
2022-12-08T06:11:03.986Z,1000.75
2022-12-08T06:12:04.010Z,1000.76
2022-12-08T06:14:08.477Z,1000.78
2022-12-08T06:15:08.002Z,1000.79
2022-12-08T06:17:11.998Z,1000.74
2022-12-08T06:18:12.014Z,1000.77
2022-12-08T06:20:05.788Z,1000.78
2022-12-08T06:21:04.953Z,1000.73
2022-12-08T06:23:08.972Z,1000.73
2022-12-08T06:24:08.969Z,1000.70
2022-12-08T06:26:13.454Z,1000.65
2022-12-08T06:27:12.980Z,1000.74
2022-12-08T06:29:16.983Z,1000.65
2022-12-08T06:30:17.000Z,1000.70
2022-12-08T06:32:27.122Z,1000.66
2022-12-08T06:33:21.004Z,1000.64
2022-12-08T06:35:25.006Z,1000.66
2022-12-08T06:36:25.006Z,1000.69
2022-12-08T06:37:25.021Z,1000.69
2022-12-08T06:38:25.044Z,1000.68
2022-12-08T06:39:25.057Z,1000.68
2022-12-08T06:40:25.086Z,1000.70
2022-12-08T06:41:25.096Z,1000.69
2022-12-08T06:42:25.116Z,1000.67
2022-12-08T06:43:25.131Z,1000.67
2022-12-08T06:44:25.147Z,1000.65
2022-12-08T06:45:25.167Z,1000.68
2022-12-08T06:46:25.271Z,1000.64
2022-12-08T06:47:26.435Z,1000.64
2022-12-08T06:48:25.224Z,1000.65
2022-12-08T06:49:25.237Z,1000.66
2022-12-08T06:50:25.255Z,1000.70
2022-12-08T06:51:25.279Z,1000.66
2022-12-08T06:52:25.295Z,1000.69
2022-12-08T06:53:25.318Z,1000.70
2022-12-08T06:54:25.332Z,1000.72
2022-12-08T06:55:57.300Z,1000.65
2022-12-08T06:56:25.363Z,1000.71
2022-12-08T06:57:25.384Z,1000.68
2022-12-08T06:58:25.425Z,1000.68
2022-12-08T06:59:25.423Z,1000.73
2022-12-08T07:00:25.439Z,1000.75
2022-12-08T07:01:25.490Z,1000.71
2022-12-08T07:02:25.577Z,1000.72
2022-12-08T07:03:25.494Z,1000.72
2022-12-08T07:04:25.513Z,1000.74
2022-12-08T07:05:25.530Z,1000.74
2022-12-08T07:06:25.552Z,1000.72
2022-12-08T07:07:25.566Z,1000.73
2022-12-08T07:08:25.659Z,1000.74
2022-12-08T07:09:25.601Z,1000.73
2022-12-08T07:10:25.621Z,1000.73
2022-12-08T07:11:25.642Z,1000.76
2022-12-08T07:12:25.671Z,1000.78
2022-12-08T07:13:25.675Z,1000.75
2022-12-08T07:14:25.705Z,1000.75
2022-12-08T07:15:25.717Z,1000.78
2022-12-08T07:16:25.766Z,1000.75
2022-12-08T07:17:25.751Z,1000.75
2022-12-08T07:18:25.801Z,1000.78
2022-12-08T07:19:25.794Z,1000.82
2022-12-08T07:20:25.803Z,1000.82
2022-12-08T07:21:25.825Z,1000.82
2022-12-08T07:22:25.844Z,1000.85
2022-12-08T07:23:25.857Z,1000.84
2022-12-08T07:24:25.879Z,1000.84
2022-12-08T07:25:25.892Z,1000.86
2022-12-08T07:26:25.917Z,1000.82
2022-12-08T07:27:25.932Z,1000.86
2022-12-08T07:28:25.951Z,1000.86
2022-12-08T07:29:26.524Z,1000.87
2022-12-08T07:30:26.111Z,1000.85
2022-12-08T07:31:26.178Z,1000.87
2022-12-08T07:32:26.019Z,1000.88
2022-12-08T07:33:26.047Z,1000.92
2022-12-08T07:34:26.060Z,1000.89
2022-12-08T07:35:26.081Z,1000.91
2022-12-08T07:36:26.099Z,1000.88
2022-12-08T07:37:26.111Z,1000.90
2022-12-08T07:38:26.134Z,1000.89
2022-12-08T07:39:26.151Z,1000.90
2022-12-08T07:40:26.170Z,1000.92
2022-12-08T07:41:26.187Z,1000.90
2022-12-08T07:42:26.208Z,1000.90
2022-12-08T07:43:26.222Z,1000.86
2022-12-08T07:44:26.245Z,1000.85
2022-12-08T07:45:31.434Z,1000.86
2022-12-08T07:46:26.342Z,1000.87
2022-12-08T07:47:26.302Z,1000.87
2022-12-08T07:48:26.327Z,1000.82
2022-12-08T07:49:26.342Z,1000.86
2022-12-08T07:50:26.354Z,1000.88
2022-12-08T07:51:26.368Z,1000.87
2022-12-08T07:52:26.385Z,1000.85
2022-12-08T07:53:26.405Z,1000.86
2022-12-08T07:54:26.430Z,1000.83
2022-12-08T07:55:26.446Z,1000.84
2022-12-08T07:56:26.464Z,1000.87
2022-12-08T07:57:26.477Z,1000.85
2022-12-08T07:58:26.529Z,1000.88
2022-12-08T07:59:26.517Z,1000.88
2022-12-08T08:00:26.553Z,1000.87
2022-12-08T08:01:26.794Z,1000.89
2022-12-08T08:02:26.781Z,1000.86
2022-12-08T08:03:26.589Z,1000.87
2022-12-08T08:04:26.718Z,1000.89
2022-12-08T08:05:26.625Z,1000.88
2022-12-08T08:06:26.646Z,1000.88
2022-12-08T08:07:26.662Z,1000.88
2022-12-08T08:08:26.759Z,1000.90
2022-12-08T08:09:26.699Z,1000.90
2022-12-08T08:10:26.795Z,1000.89
2022-12-08T08:11:26.736Z,1000.91
2022-12-08T08:12:31.675Z,1000.86
2022-12-08T08:13:26.775Z,1000.87
2022-12-08T08:14:26.788Z,1000.85
2022-12-08T08:15:26.815Z,1000.93
2022-12-08T08:16:27.023Z,1000.94
2022-12-08T08:17:26.994Z,1000.95
2022-12-08T08:18:26.863Z,1000.92
2022-12-08T08:19:26.887Z,1000.97
2022-12-08T08:20:26.909Z,1001.00
2022-12-08T08:21:44.959Z,1000.94
2022-12-08T08:22:26.941Z,1000.95
2022-12-08T08:23:26.963Z,1000.96
2022-12-08T08:24:26.980Z,1000.95
2022-12-08T08:25:26.995Z,1000.94
2022-12-08T08:26:27.014Z,1000.96
2022-12-08T08:27:27.033Z,1000.96
2022-12-08T08:28:27.055Z,1000.97
2022-12-08T08:29:27.072Z,1000.98
2022-12-08T08:30:27.091Z,1000.97
2022-12-08T08:31:27.367Z,1000.93
2022-12-08T08:32:27.131Z,1000.93
2022-12-08T08:33:27.148Z,1000.97
2022-12-08T08:34:27.167Z,1000.96
2022-12-08T08:35:27.185Z,1001.00
2022-12-08T08:36:27.201Z,1001.00
2022-12-08T08:37:27.283Z,1001.01
2022-12-08T08:38:27.249Z,1001.00
2022-12-08T08:39:27.267Z,1001.05
2022-12-08T08:40:27.277Z,1001.03
2022-12-08T08:41:27.296Z,1001.06
2022-12-08T08:42:27.313Z,1001.06
2022-12-08T08:43:27.653Z,1001.01
2022-12-08T08:44:27.360Z,1001.03
2022-12-08T08:45:27.371Z,1001.03
2022-12-08T08:46:27.485Z,1001.07
2022-12-08T08:47:27.407Z,1001.06
2022-12-08T08:48:27.431Z,1001.07
2022-12-08T08:49:27.441Z,1001.07
2022-12-08T08:50:29.513Z,1001.10
2022-12-08T08:51:27.484Z,1001.05
2022-12-08T08:52:27.501Z,1001.08
2022-12-08T08:53:27.517Z,1001.07
2022-12-08T08:54:27.539Z,1001.08
2022-12-08T08:55:27.555Z,1001.08
2022-12-08T08:56:27.575Z,1001.08
2022-12-08T08:57:27.671Z,1001.09
2022-12-08T08:58:27.610Z,1001.08
2022-12-08T08:59:27.631Z,1001.04
2022-12-08T09:00:27.647Z,1001.08
2022-12-08T09:01:27.774Z,1001.08
2022-12-08T09:02:27.689Z,1001.11
2022-12-08T09:03:27.703Z,1001.11
2022-12-08T09:04:27.801Z,1001.14
2022-12-08T09:05:27.740Z,1001.12
2022-12-08T09:06:27.806Z,1001.09
2022-12-08T09:07:27.778Z,1001.10
2022-12-08T09:08:27.812Z,1001.12
2022-12-08T09:09:27.818Z,1001.06
2022-12-08T09:10:27.833Z,1001.13
2022-12-08T09:11:27.853Z,1001.11
2022-12-08T09:12:27.871Z,1001.15
2022-12-08T09:13:27.889Z,1001.13
2022-12-08T09:14:27.913Z,1001.13
2022-12-08T09:15:27.943Z,1001.15
2022-12-08T09:16:28.047Z,1001.14
2022-12-08T09:17:27.963Z,1001.13
2022-12-08T09:18:27.980Z,1001.17
2022-12-08T09:19:28.006Z,1001.09
2022-12-08T09:20:28.021Z,1001.11
2022-12-08T09:21:28.039Z,1001.13
2022-12-08T09:22:28.058Z,1001.08
2022-12-08T09:23:33.704Z,1001.11
2022-12-08T09:24:28.093Z,1001.13
2022-12-08T09:25:28.111Z,1001.14
2022-12-08T09:26:28.152Z,1001.13
2022-12-08T09:27:28.150Z,1001.14
2022-12-08T09:28:28.167Z,1001.21
2022-12-08T09:29:34.027Z,1001.20
2022-12-08T09:30:28.203Z,1001.17
2022-12-08T09:31:28.286Z,1001.21
2022-12-08T09:32:28.249Z,1001.19
2022-12-08T09:33:28.263Z,1001.18
2022-12-08T09:34:28.279Z,1001.19
2022-12-08T09:35:28.300Z,1001.17
2022-12-08T09:36:28.321Z,1001.23
2022-12-08T09:37:28.332Z,1001.24
2022-12-08T09:38:28.354Z,1001.21
2022-12-08T09:39:28.373Z,1001.22
2022-12-08T09:40:28.390Z,1001.22
2022-12-08T09:41:35.737Z,1001.25
2022-12-08T09:42:28.436Z,1001.21
2022-12-08T09:43:28.449Z,1001.22
2022-12-08T09:44:28.466Z,1001.18
2022-12-08T09:45:28.483Z,1001.18
2022-12-08T09:46:28.547Z,1001.18
2022-12-08T09:47:35.346Z,1001.16
2022-12-08T09:48:28.538Z,1001.17
2022-12-08T09:49:28.558Z,1001.15
2022-12-08T09:50:28.577Z,1001.15
2022-12-08T09:51:28.592Z,1001.17
2022-12-08T09:52:28.615Z,1001.17
2022-12-08T09:53:35.311Z,1001.19
2022-12-08T09:54:28.653Z,1001.17
2022-12-08T09:55:28.670Z,1001.20
2022-12-08T09:56:28.689Z,1001.22
2022-12-08T09:57:28.707Z,1001.22
2022-12-08T09:58:28.724Z,1001.24
2022-12-08T09:59:28.746Z,1001.24
2022-12-08T10:00:28.769Z,1001.28
2022-12-08T10:01:28.815Z,1001.22
2022-12-08T10:02:28.800Z,1001.23
2022-12-08T10:03:28.818Z,1001.23
2022-12-08T10:04:29.036Z,1001.21
2022-12-08T10:05:28.972Z,1001.15
2022-12-08T10:06:28.873Z,1001.16
2022-12-08T10:07:28.894Z,1001.15
2022-12-08T10:08:28.959Z,1001.17
2022-12-08T10:09:28.932Z,1001.20
2022-12-08T10:10:28.949Z,1001.17
2022-12-08T10:11:28.972Z,1001.19
2022-12-08T10:12:28.989Z,1001.20
2022-12-08T10:13:29.006Z,1001.18
2022-12-08T10:14:29.024Z,1001.20
2022-12-08T10:15:29.045Z,1001.17
2022-12-08T10:16:30.182Z,1001.16
2022-12-08T10:17:29.082Z,1001.15
2022-12-08T10:18:29.104Z,1001.15
2022-12-08T10:19:29.120Z,1001.17
2022-12-08T10:20:29.138Z,1001.13
2022-12-08T10:21:29.158Z,1001.09
2022-12-08T10:22:29.172Z,1001.09
2022-12-08T10:23:29.205Z,1001.18
2022-12-08T10:24:29.209Z,1001.17
2022-12-08T10:25:29.227Z,1001.13
2022-12-08T10:26:29.247Z,1001.13
2022-12-08T10:27:29.265Z,1001.10
2022-12-08T10:28:29.286Z,1001.10
2022-12-08T10:29:29.302Z,1001.10
2022-12-08T10:30:29.320Z,1001.13
2022-12-08T10:31:29.382Z,1001.10
2022-12-08T10:32:29.361Z,1001.07
2022-12-08T10:33:29.376Z,1001.06
2022-12-08T10:34:29.395Z,1001.07
2022-12-08T10:35:29.416Z,1001.00
2022-12-08T10:36:29.432Z,1000.99
2022-12-08T10:37:29.450Z,1001.04
2022-12-08T10:38:29.478Z,1001.05
2022-12-08T10:39:29.489Z,1001.02
2022-12-08T10:40:29.507Z,1001.05
2022-12-08T10:41:29.526Z,1001.03
2022-12-08T10:42:29.548Z,1001.05
2022-12-08T10:43:29.561Z,1000.99
2022-12-08T10:44:29.582Z,1001.03
2022-12-08T10:45:29.600Z,1000.97
2022-12-08T10:46:29.699Z,1000.97
2022-12-08T10:47:29.637Z,1000.99
2022-12-08T10:48:29.656Z,1001.00
2022-12-08T10:49:29.676Z,1000.99
2022-12-08T10:50:29.695Z,1000.99
2022-12-08T10:51:29.718Z,1000.99
2022-12-08T10:52:29.733Z,1001.01
2022-12-08T10:53:29.760Z,1001.01
2022-12-08T10:54:29.771Z,1001.02
2022-12-08T10:55:29.789Z,1000.99
2022-12-08T10:56:29.809Z,1000.97
2022-12-08T10:57:29.825Z,1000.97
2022-12-08T10:58:29.844Z,1000.98
2022-12-08T10:59:29.864Z,1000.93
2022-12-08T11:00:30.062Z,1000.93
2022-12-08T11:01:29.947Z,1000.95
2022-12-08T11:02:30.019Z,1000.93
2022-12-08T11:03:29.939Z,1000.95
2022-12-08T11:04:29.955Z,1000.96
2022-12-08T11:05:29.973Z,1000.99
2022-12-08T11:06:29.996Z,1000.98
2022-12-08T11:07:30.014Z,1000.98
2022-12-08T11:08:30.127Z,1000.96
2022-12-08T11:09:30.050Z,1000.93
2022-12-08T11:10:30.081Z,1000.97
2022-12-08T11:11:30.093Z,1000.94
2022-12-08T11:12:30.108Z,1000.96
2022-12-08T11:13:30.125Z,1000.97
2022-12-08T11:14:30.148Z,1000.95
2022-12-08T11:15:30.162Z,1000.99
2022-12-08T11:16:30.223Z,1000.97
2022-12-08T11:17:30.202Z,1000.95
2022-12-08T11:18:30.236Z,1000.93
2022-12-08T11:19:30.238Z,1000.93
2022-12-08T11:20:30.259Z,1000.93
2022-12-08T11:21:30.275Z,1000.88
2022-12-08T11:22:30.300Z,1000.90
2022-12-08T11:23:30.319Z,1000.88
2022-12-08T11:24:36.047Z,1000.85
2022-12-08T11:25:30.357Z,1000.85
2022-12-08T11:26:30.379Z,1000.87
2022-12-08T11:27:30.393Z,1000.89
2022-12-08T11:28:30.414Z,1000.83
2022-12-08T11:29:30.431Z,1000.87
2022-12-08T11:30:30.452Z,1000.88
2022-12-08T11:31:30.513Z,1000.91
2022-12-08T11:32:30.490Z,1000.88
2022-12-08T11:33:30.509Z,1000.91
2022-12-08T11:34:30.530Z,1000.91
2022-12-08T11:35:30.544Z,1000.88
2022-12-08T11:36:30.567Z,1000.87
2022-12-08T11:37:34.745Z,1000.88
2022-12-08T11:38:30.607Z,1000.83
2022-12-08T11:39:30.626Z,1000.81
2022-12-08T11:40:30.649Z,1000.83
2022-12-08T11:41:30.662Z,1000.81
2022-12-08T11:42:30.683Z,1000.80
2022-12-08T11:43:30.706Z,1000.78
2022-12-08T11:44:30.722Z,1000.76
2022-12-08T11:45:30.781Z,1000.77
2022-12-08T11:46:30.907Z,1000.75
2022-12-08T11:47:30.785Z,1000.76
2022-12-08T11:48:30.800Z,1000.71
2022-12-08T11:49:30.822Z,1000.76
2022-12-08T11:50:30.854Z,1000.78
2022-12-08T11:51:30.858Z,1000.72
2022-12-08T11:52:30.890Z,1000.78
2022-12-08T11:53:30.897Z,1000.76
2022-12-08T11:54:30.919Z,1000.76
2022-12-08T11:55:35.267Z,1000.80
2022-12-08T11:56:30.969Z,1000.75
2022-12-08T11:57:31.116Z,1000.77
2022-12-08T11:58:30.997Z,1000.73
2022-12-08T11:59:31.014Z,1000.74
2022-12-08T12:00:31.035Z,1000.72
2022-12-08T12:01:31.053Z,1000.65
2022-12-08T12:02:31.164Z,1000.65
2022-12-08T12:03:31.230Z,1000.65
2022-12-08T12:04:31.122Z,1000.63
2022-12-08T12:06:05.435Z,1000.62
2022-12-08T12:06:53.117Z,1000.58
2022-12-08T12:07:31.173Z,1000.62
2022-12-08T12:08:31.269Z,1000.61
2022-12-08T12:09:31.217Z,1000.57
2022-12-08T12:10:31.233Z,1000.57
2022-12-08T12:11:31.252Z,1000.58
2022-12-08T12:12:36.290Z,1000.58
2022-12-08T12:13:31.292Z,1000.60
2022-12-08T12:14:31.309Z,1000.61
2022-12-08T12:15:31.333Z,1000.62
2022-12-08T12:16:31.397Z,1000.64
2022-12-08T12:17:31.369Z,1000.63
2022-12-08T12:18:31.394Z,1000.64
2022-12-08T12:19:31.409Z,1000.66
2022-12-08T12:20:31.429Z,1000.67
2022-12-08T12:21:31.454Z,1000.67
2022-12-08T12:22:31.472Z,1000.69
2022-12-08T12:23:31.488Z,1000.67
2022-12-08T12:24:35.608Z,1000.69
2022-12-08T12:25:31.527Z,1000.68
2022-12-08T12:26:31.549Z,1000.68
2022-12-08T12:27:31.565Z,1000.61
2022-12-08T12:28:31.590Z,1000.67
2022-12-08T12:29:31.605Z,1000.67
2022-12-08T12:30:31.666Z,1000.64
2022-12-08T12:31:31.645Z,1000.67
2022-12-08T12:32:31.665Z,1000.67
2022-12-08T12:33:31.688Z,1000.64
2022-12-08T12:34:31.705Z,1000.66
2022-12-08T12:35:31.725Z,1000.65
2022-12-08T12:36:31.744Z,1000.62
2022-12-08T12:37:31.762Z,1000.61
2022-12-08T12:38:31.788Z,1000.65
2022-12-08T12:39:31.802Z,1000.63
2022-12-08T12:40:31.824Z,1000.63
2022-12-08T12:41:31.840Z,1000.63
2022-12-08T12:42:31.868Z,1000.65
2022-12-08T12:43:31.883Z,1000.64